• Join FlightAware (Why Join?)
  • Login
  • US Flag 
06:34PM EDT


 

Airport Tracker/Info


-or-


 

Live Flight TrackerFlight Track Log ✈ SWA864 ✈ 25-May-2013 ✈ KDEN - KSAT

Flight Track Log - Related Links

Times and Time Zones

All times are in EDT time to prevent confusion due to time zone crossing. See the SWA864 flight status page for this flight to view local times or setup timezone preferences in your user account.

Time Position Orientation Groundspeed Altitude Reporting Facility
EDT Latitude Longitude Course Direction KTS MPH feet Rate Location/Type
01:53PM 39.7833 -104.6500 159° South 207 238 7,700  Level Denver TRACON
01:54PM 39.7167 -104.6167 159° South 258 297 9,700 1,560 Climbing Denver TRACON
01:55PM 39.6783 -104.6025 164° South 266 306 10,100 2,040 Climbing Denver Center
01:56PM 39.5856 -104.6214 189° South 334 384 12,900 2,820 Climbing Denver Center
01:57PM 39.4900 -104.5917 167° South 355 409 15,900 2,880 Climbing Denver Center
01:58PM 39.3825 -104.5514 164° South 375 432 18,900 2,820 Climbing Denver Center
01:59PM 39.2775 -104.5133 164° South 391 450 21,700 1,980 Climbing Denver Center
02:00PM 39.1653 -104.4714 164° South 389 448 23,000 1,140 Climbing Denver Center
02:01PM 39.0603 -104.4328 164° South 387 445 24,100 1,380 Climbing Denver Center
02:02PM 38.9542 -104.4056 169° South 395 455 25,900 1,740 Climbing Denver Center
02:03PM 38.8247 -104.3708 168° South 419 482 27,700 1,560 Climbing Denver Center
02:04PM 38.7103 -104.3408 168° South 433 498 29,200 1,560 Climbing Denver Center
02:05PM 38.5914 -104.3094 168° South 449 517 30,900 1,920 Climbing Denver Center
02:07PM 38.3439 -104.2319 166° South 440 506 35,200 1,920 Climbing Denver Center
02:08PM 38.2283 -104.1344 146° Southeast 444 511 36,900 840 Climbing Denver Center
02:09PM 38.1283 -104.0539 148° Southeast 444 511 37,000  Climbing Denver Center
02:10PM 38.0128 -103.9597 147° Southeast 442 509 37,000  Level Denver Center
02:11PM 37.9125 -103.8794 148° Southeast 442 509 37,000  Level Denver Center
02:12PM 37.8122 -103.7997 148° Southeast 440 506 37,000  Level Denver Center
02:13PM 37.6944 -103.7061 148° Southeast 442 509 37,000  Level Denver Center
02:14PM 37.5933 -103.6250 148° Southeast 444 511 37,000  Level Denver Center
02:15PM 37.4928 -103.5453 148° Southeast 444 511 37,000  Level Denver Center
02:16PM 37.3756 -103.4528 148° Southeast 443 510 37,000  Level Denver Center
02:17PM 37.3592 -103.4397 148° Southeast 442 509 37,000  Level Albuquerque Center
02:18PM 37.2414 -103.3478 148° Southeast 444 511 37,000  Level Albuquerque Center
02:19PM 37.1406 -103.2697 148° Southeast 444 511 37,000  Level Albuquerque Center
02:20PM 37.0231 -103.1792 148° Southeast 443 510 37,000  Level Albuquerque Center
02:21PM 36.9228 -103.1006 148° Southeast 443 510 37,000  Level Albuquerque Center
02:22PM 36.8064 -103.0094 148° Southeast 442 509 37,000  Level Albuquerque Center
02:23PM 36.7069 -102.9339 149° Southeast 438 504 37,000  Level Albuquerque Center
02:24PM 36.6117 -102.8603 148° Southeast 439 505 37,000  Level Albuquerque Center
02:25PM 36.4875 -102.7633 148° Southeast 440 506 37,000  Level Albuquerque Center
02:26PM 36.3856 -102.6850 148° Southeast 435 501 37,000  Level Albuquerque Center
02:27PM 36.2819 -102.6061 148° Southeast 436 502 37,000  Level Albuquerque Center
02:28PM 36.1786 -102.5278 149° Southeast 435 501 37,000  Level Albuquerque Center
02:29PM 36.0747 -102.4492 149° Southeast 437 503 37,000  Level Albuquerque Center
02:30PM 35.9708 -102.3706 149° Southeast 437 503 37,000  Level Albuquerque Center
02:31PM 35.8667 -102.2925 149° Southeast 439 505 37,000  Level Albuquerque Center
02:32PM 35.7619 -102.2144 149° Southeast 439 505 37,000  Level Albuquerque Center
02:33PM 35.6375 -102.1206 148° Southeast 439 505 37,000  Level Albuquerque Center
02:34PM 35.5342 -102.0428 149° Southeast 438 504 37,000  Level Albuquerque Center
02:35PM 35.4300 -101.9664 149° Southeast 438 504 37,000  Level Albuquerque Center
02:36PM 35.3281 -101.8881 148° Southeast 433 498 37,000  Level Albuquerque Center
02:37PM 35.2200 -101.8103 150° Southeast 437 503 37,000  Level Albuquerque Center
02:38PM 35.1164 -101.7333 149° Southeast 434 499 37,000  Level Albuquerque Center
02:39PM 35.0036 -101.6503 149° Southeast 435 501 37,000  Level Albuquerque Center
02:40PM 34.8986 -101.5725 149° Southeast 437 503 37,000  Level Albuquerque Center
02:41PM 34.7964 -101.4969 149° Southeast 436 502 37,000  Level Albuquerque Center
02:42PM 34.6928 -101.4214 149° Southeast 435 501 37,000  Level Albuquerque Center
02:43PM 34.5894 -101.3461 149° Southeast 435 501 37,000  Level Albuquerque Center
02:44PM 34.4856 -101.2725 150° Southeast 433 498 37,000  Level Albuquerque Center
02:45PM 34.3608 -101.1825 149° Southeast 435 501 37,000  Level Albuquerque Center
02:46PM 34.2561 -101.1081 150° Southeast 436 502 37,000  Level Albuquerque Center
02:47PM 34.1564 -101.0375 150° Southeast 436 502 37,000  Level Fort Worth Center
02:48PM 34.0622 -100.9658 148° Southeast 442 509 37,000  Level Fort Worth Center
02:49PM 33.9478 -100.8861 150° Southeast 436 502 37,000  Level Fort Worth Center
02:50PM 33.8433 -100.8094 149° Southeast 436 502 37,000  Level Fort Worth Center
02:51PM 33.7389 -100.7381 150° Southeast 423 487 37,000  Level Fort Worth Center
02:52PM 33.6344 -100.6642 149° Southeast 435 501 37,000  Level Fort Worth Center
02:53PM 33.5278 -100.5906 150° Southeast 435 501 37,000  Level Fort Worth Center
02:54PM 33.4253 -100.5169 149° Southeast 435 501 37,000  Level Fort Worth Center
02:55PM 33.3206 -100.4439 150° Southeast 435 501 37,000  Level Fort Worth Center
02:56PM 33.2158 -100.3706 150° Southeast 430 495 37,000  Level Fort Worth Center
02:57PM 33.1111 -100.2978 150° Southeast 430 495 37,000  Level Fort Worth Center
02:58PM 33.0042 -100.2250 150° Southeast 430 495 37,000  Level Fort Worth Center
02:59PM 32.8994 -100.1522 150° Southeast 430 495 37,000  Level Fort Worth Center
03:00PM 32.7925 -100.0800 150° Southeast 430 495 37,000  Level Fort Worth Center
03:01PM 32.7081 -100.0256 152° Southeast 430 495 37,000  Level Fort Worth Center
03:02PM 32.5806 -99.9331 149° Southeast 435 501 37,000  Level Fort Worth Center
03:03PM 32.4733 -99.8636 151° Southeast 440 506 37,000  Level Fort Worth Center
03:04PM 32.3681 -99.8067 155° Southeast 435 501 37,000  Level Fort Worth Center
03:05PM 32.2583 -99.7472 155° Southeast 429 494 37,000  Level Fort Worth Center
03:06PM 32.1611 -99.6981 157° South 429 494 37,000  Level Fort Worth Center
03:07PM 32.0517 -99.6389 155° Southeast 429 494 37,000  Level Fort Worth Center
03:08PM 31.9317 -99.5797 157° South 429 494 37,000 -240 Level Fort Worth Center
03:09PM 31.8239 -99.5233 156° South 429 494 36,600 -1,440 Descending Fort Worth Center
03:10PM 31.7142 -99.4694 157° South 429 494 34,200 -2,100 Descending Fort Worth Center
03:12PM 31.5772 -99.3958 155° Southeast 411 473 31,500 -1,860 Descending Houston Center
03:13PM 31.4747 -99.3461 158° South 398 458 29,700 -1,440 Descending Houston Center
03:14PM 31.3772 -99.2944 156° South 385 443 28,600 -1,020 Descending Houston Center
03:15PM 31.2744 -99.2408 156° South 392 451 27,600 -1,080 Descending Houston Center
03:16PM 31.1750 -99.1908 157° South 389 448 26,500 -1,080 Descending Houston Center
03:17PM 31.0622 -99.1347 157° South 379 436 25,400 -1,380 Descending Houston Center
03:18PM 30.9650 -99.0858 157° South 378 435 23,700 -1,680 Descending Houston Center
03:19PM 30.8711 -99.0367 156° South 368 423 22,000 -1,740 Descending Houston Center
03:20PM 30.7750 -98.9908 158° South 370 426 20,200 -1,740 Descending Houston Center
03:21PM 30.6817 -98.9431 156° South 364 419 18,500 -1,620 Descending Houston Center
03:22PM 30.5903 -98.8969 157° South 358 412 16,900 -1,620 Descending Houston Center
03:23PM 30.4997 -98.8517 157° South 353 406 15,200 -1,680 Descending Houston Center
03:24PM 30.4125 -98.8086 157° South 342 394 13,500 -1,680 Descending Houston Center
03:25PM 30.3289 -98.7667 157° South 326 375 11,800 -1,740 Descending Houston Center
03:26PM 30.2831 -98.7444 157° South 317 365 11,000 -1,560 Descending Houston Center
03:26PM 30.2336 -98.7192 156° South 317 365 10,200 -1,020 Descending Houston Center
03:27PM 30.1978 -98.7086 166° South 301 346 10,000 -240 Descending Houston Center
03:27PM 30.1569 -98.7106 182° South 281 323 10,000  Level Houston Center
03:27PM 30.1333 -98.7136 186° South 266 306 10,000  Level Houston Center
03:28PM 30.0808 -98.7200 186° South 275 316 10,000  Level Houston Center
03:29PM 30.0044 -98.7294 186° South 254 292 10,000 -120 Level Houston Center
03:29PM 29.9839 -98.7339 191° South 243 280 9,900 -960 Descending Houston Center
03:30PM 29.9242 -98.7217 170° South 239 275 8,900 -1,080 Descending Houston Center
03:31PM 29.8736 -98.7081 167° South 236 272 8,100 -1,140 Descending Houston Center
03:32PM 29.8089 -98.6919 168° South 223 257 6,800 -1,200 Descending Houston Center
03:32PM 29.7953 -98.6911 177° South 217 250 6,600 -1,020 Descending Houston Center
03:33PM 29.7511 -98.6772 165° South 214 246 5,800 -1,080 Descending Houston Center
03:34PM 29.7286 -98.6725 170° South 214 246 5,400 -1,020 Descending Houston Center
03:34PM 29.6936 -98.6619 165° South 211 243 4,800 -900 Descending Houston Center
03:35PM 29.6486 -98.6217 142° Southeast 196 226 3,900 -900 Descending Houston Center
03:36PM 29.6161 -98.5797 132° Southeast 181 208 3,000 -900 Descending Houston Center
03:37PM 29.5819 -98.5383 134° Southeast 153 176 2,000 -840 Descending Houston Center
03:38PM 29.5581 -98.5053 130° Southeast 127 146 1,300 -660 Descending Houston Center
03:39PM 29.5408 -98.4814 130° Southeast 128 147 800 -540 Descending Houston Center
03:41PM 29.5333 -98.4667 120° Southeast  Level FlightAware Approximate
03:48PM 29.5340 -98.4691 120° Southeast  Level Estimated
03:49PM 29.5333 -98.4667 120° Southeast  Level FlightAware Approximate